Time;durP1;ratioP1;P1;durP2;ratioP2;P2;SDS_P1;SDS_P2;PMS_P1;PMS_P2;Temp;Humidity;BMP_temperature;BMP_pressure;BME280_temperature;BME280_humidity;BME280_pressure;Samples;Min_cycle;Max_cycle;Signal;HPM_P1;HPM_P2
2023/08/27 00:00:38;;;;;;;4.20;3.03;;;16.50;99.90;;;;;;5053630;28;20462;-63
2023/08/27 00:03:05;;;;;;;2.90;2.53;;;16.40;99.90;;;;;;5053720;28;20444;-64
2023/08/27 00:05:33;;;;;;;3.30;3.00;;;16.30;99.90;;;;;;5053458;28;20444;-64
2023/08/27 00:08:00;;;;;;;3.70;2.83;;;16.30;99.90;;;;;;5053903;28;20507;-63
2023/08/27 00:10:26;;;;;;;3.53;3.20;;;16.20;99.90;;;;;;5053222;28;20504;-63
2023/08/27 00:12:53;;;;;;;4.90;3.40;;;16.20;99.90;;;;;;5053498;28;20444;-62
2023/08/27 00:15:20;;;;;;;4.23;2.97;;;16.20;99.90;;;;;;5054230;28;20474;-64
2023/08/27 00:17:47;;;;;;;3.60;2.97;;;16.20;99.90;;;;;;5053488;28;20510;-64
2023/08/27 00:20:14;;;;;;;4.80;2.50;;;16.20;99.90;;;;;;5054270;28;20517;-63
2023/08/27 00:22:42;;;;;;;4.10;2.93;;;16.20;99.90;;;;;;5054701;28;20436;-63
2023/08/27 00:25:10;;;;;;;3.60;2.80;;;16.20;99.90;;;;;;5053715;28;20444;-64
2023/08/27 00:27:36;;;;;;;2.93;2.63;;;16.30;99.90;;;;;;5055011;28;20443;-63
2023/08/27 00:30:04;;;;;;;3.70;2.90;;;16.30;99.90;;;;;;5057770;28;20573;-65
2023/08/27 00:32:33;;;;;;;4.00;2.90;;;16.40;99.90;;;;;;5058587;28;20440;-62
2023/08/27 00:35:00;;;;;;;2.60;2.20;;;16.40;99.90;;;;;;5059899;28;20447;-63
2023/08/27 00:37:27;;;;;;;6.97;2.77;;;16.40;99.90;;;;;;5057727;28;20819;-63
2023/08/27 00:39:55;;;;;;;3.70;2.50;;;16.40;99.90;;;;;;5057458;28;20961;-63
2023/08/27 00:42:22;;;;;;;3.53;2.60;;;16.40;99.90;;;;;;5057462;28;20439;-63
2023/08/27 00:44:49;;;;;;;2.60;2.27;;;16.40;99.90;;;;;;5057027;28;20959;-63
2023/08/27 00:47:17;;;;;;;3.50;2.43;;;16.40;99.90;;;;;;5057044;28;20857;-63
2023/08/27 00:49:45;;;;;;;3.93;2.70;;;16.50;99.90;;;;;;5057378;28;20459;-63
2023/08/27 00:52:13;;;;;;;2.90;2.67;;;16.50;99.90;;;;;;5057684;28;20450;-63
2023/08/27 00:54:40;;;;;;;3.97;2.97;;;16.50;99.90;;;;;;5057154;28;20446;-63
2023/08/27 00:57:09;;;;;;;2.60;2.40;;;16.50;99.90;;;;;;5058006;28;20553;-62
2023/08/27 00:59:37;;;;;;;3.03;2.73;;;16.50;99.90;;;;;;5056783;28;20521;-62
2023/08/27 01:02:04;;;;;;;7.17;3.27;;;16.50;99.90;;;;;;5056681;28;20825;-63
2023/08/27 01:04:31;;;;;;;3.90;2.70;;;16.40;99.90;;;;;;5056846;28;20509;-63
2023/08/27 01:07:02;;;;;;;2.60;2.40;;;16.40;99.90;;;;;;5057345;28;20440;-63
2023/08/27 01:09:34;;;;;;;2.83;2.30;;;16.40;99.90;;;;;;5057508;28;20475;-63
2023/08/27 01:12:09;;;;;;;2.63;2.43;;;16.40;99.90;;;;;;5058509;28;20424;-63
2023/08/27 01:14:37;;;;;;;4.13;2.53;;;16.30;99.90;;;;;;5058400;28;20419;-64
2023/08/27 01:17:07;;;;;;;6.23;3.20;;;16.30;99.90;;;;;;5057642;28;20493;-64
2023/08/27 01:19:34;;;;;;;4.57;2.50;;;16.30;99.90;;;;;;5057649;28;20471;-63
2023/08/27 01:22:02;;;;;;;2.60;2.17;;;16.30;99.90;;;;;;5057993;28;20519;-64
2023/08/27 01:24:29;;;;;;;6.63;2.93;;;16.30;99.90;;;;;;5057151;28;20439;-63
2023/08/27 01:27:03;;;;;;;5.77;2.43;;;16.30;99.90;;;;;;5057512;28;20458;-63
2023/08/27 01:29:36;;;;;;;2.83;2.53;;;16.20;99.90;;;;;;5057247;28;20517;-63
2023/08/27 01:32:15;;;;;;;2.73;2.53;;;16.20;99.90;;;;;;5057328;28;20906;-64
2023/08/27 01:34:43;;;;;;;3.30;2.33;;;16.20;99.90;;;;;;5057558;28;20494;-63
2023/08/27 01:37:12;;;;;;;2.60;2.37;;;16.10;99.90;;;;;;5058042;28;20514;-65
2023/08/27 01:39:39;;;;;;;2.83;2.00;;;16.00;99.90;;;;;;5056451;28;20537;-64
2023/08/27 01:42:06;;;;;;;3.80;2.70;;;16.00;99.90;;;;;;5057116;28;20945;-63
2023/08/27 01:44:33;;;;;;;2.80;2.37;;;16.00;99.90;;;;;;5056739;28;20946;-63
2023/08/27 01:47:00;;;;;;;2.47;2.13;;;16.00;99.90;;;;;;5056451;28;20447;-63
2023/08/27 01:49:27;;;;;;;5.07;2.43;;;16.00;99.90;;;;;;5056915;28;20456;-63
2023/08/27 01:51:54;;;;;;;2.97;2.37;;;16.00;99.90;;;;;;5056166;28;20446;-63
2023/08/27 01:54:22;;;;;;;3.30;2.40;;;15.90;99.90;;;;;;5055718;28;20442;-63
2023/08/27 01:56:48;;;;;;;4.40;2.50;;;16.00;99.90;;;;;;5055924;28;20440;-62
2023/08/27 01:59:15;;;;;;;5.10;2.57;;;16.00;99.90;;;;;;5055557;28;20983;-62
2023/08/27 02:01:43;;;;;;;3.60;2.70;;;15.90;99.90;;;;;;5055605;28;20508;-63
2023/08/27 02:04:09;;;;;;;2.97;2.70;;;15.90;99.90;;;;;;5055469;28;20467;-63
2023/08/27 02:06:36;;;;;;;3.90;2.13;;;15.90;99.90;;;;;;5055120;28;20822;-63
2023/08/27 02:09:03;;;;;;;5.87;2.87;;;15.90;99.90;;;;;;5081111;22;20476;-66
2023/08/27 02:11:31;;;;;;;4.00;2.27;;;15.80;99.90;;;;;;5075347;28;20431;-66
2023/08/27 02:13:58;;;;;;;2.47;2.20;;;15.80;99.90;;;;;;5075483;28;20865;-67
2023/08/27 02:16:25;;;;;;;3.23;2.70;;;15.80;99.90;;;;;;5075256;28;20435;-65
2023/08/27 02:18:52;;;;;;;6.90;2.63;;;15.80;99.90;;;;;;5074914;28;20860;-67
2023/08/27 02:21:18;;;;;;;2.97;2.50;;;15.80;99.90;;;;;;5075198;28;20447;-66
2023/08/27 02:23:45;;;;;;;4.20;2.40;;;15.80;99.90;;;;;;5075094;28;20449;-67
2023/08/27 02:26:12;;;;;;;3.30;2.10;;;15.80;99.90;;;;;;5075737;28;20446;-66
2023/08/27 02:28:40;;;;;;;3.40;2.03;;;15.80;99.90;;;;;;5074926;28;20443;-67
2023/08/27 02:31:08;;;;;;;2.50;2.30;;;15.80;99.90;;;;;;5074685;28;20991;-66
2023/08/27 02:33:34;;;;;;;4.47;2.20;;;15.80;99.90;;;;;;5074644;28;20454;-66
2023/08/27 02:36:01;;;;;;;2.83;2.03;;;15.80;99.90;;;;;;5074248;28;20807;-66
2023/08/27 02:38:29;;;;;;;2.60;2.20;;;15.80;99.90;;;;;;5074394;28;20474;-66
2023/08/27 02:40:55;;;;;;;2.97;2.23;;;15.80;99.90;;;;;;5074352;28;20459;-67
2023/08/27 02:43:22;;;;;;;3.30;2.43;;;15.70;99.90;;;;;;5074400;28;20932;-66
2023/08/27 02:45:50;;;;;;;2.63;2.43;;;15.70;99.90;;;;;;5074061;28;20956;-66
2023/08/27 02:48:17;;;;;;;4.13;2.43;;;15.80;99.90;;;;;;5074411;28;20442;-67
2023/08/27 02:50:44;;;;;;;3.93;2.20;;;15.80;99.90;;;;;;5073121;28;20471;-66
2023/08/27 02:53:11;;;;;;;3.60;2.40;;;15.80;99.90;;;;;;5074234;28;20445;-66
2023/08/27 02:55:38;;;;;;;3.20;2.40;;;15.80;99.90;;;;;;5074240;28;20435;-66
2023/08/27 02:58:04;;;;;;;2.30;2.10;;;15.80;99.90;;;;;;5074043;28;20485;-67
2023/08/27 03:00:31;;;;;;;7.23;2.60;;;15.70;99.90;;;;;;5074021;28;20459;-67
2023/08/27 03:02:59;;;;;;;3.00;2.80;;;15.80;99.90;;;;;;5073833;28;20864;-67
2023/08/27 03:05:26;;;;;;;2.60;2.30;;;15.80;99.90;;;;;;5074343;28;20836;-67
2023/08/27 03:07:53;;;;;;;2.70;2.50;;;15.70;99.90;;;;;;5075100;28;20478;-68
2023/08/27 03:10:22;;;;;;;2.80;2.30;;;15.70;99.90;;;;;;5074566;28;20475;-68
2023/08/27 03:12:49;;;;;;;3.50;2.33;;;15.70;99.90;;;;;;5078002;28;20450;-68
2023/08/27 03:15:16;;;;;;;3.80;2.43;;;15.70;99.90;;;;;;5074335;28;20458;-67
2023/08/27 03:17:42;;;;;;;7.43;2.70;;;15.70;99.90;;;;;;5073834;28;20565;-67
2023/08/27 03:20:11;;;;;;;3.40;2.70;;;15.70;99.90;;;;;;5073800;28;21026;-67
2023/08/27 03:22:38;;;;;;;2.50;2.30;;;15.70;99.90;;;;;;5073928;28;20438;-67
2023/08/27 03:25:06;;;;;;;5.03;2.23;;;15.60;99.90;;;;;;5073908;28;20764;-67
2023/08/27 03:27:35;;;;;;;3.33;2.30;;;15.60;99.90;;;;;;5074309;28;20521;-67
2023/08/27 03:30:02;;;;;;;2.47;2.27;;;15.60;99.90;;;;;;5074295;28;20459;-67
2023/08/27 03:32:29;;;;;;;4.53;2.60;;;15.60;99.90;;;;;;5074381;28;20487;-67
2023/08/27 03:34:56;;;;;;;3.30;2.50;;;15.60;99.90;;;;;;5074005;28;20481;-67
2023/08/27 03:37:24;;;;;;;3.03;2.40;;;15.60;99.90;;;;;;5073704;28;20475;-67
2023/08/27 03:39:51;;;;;;;5.60;2.67;;;15.60;99.90;;;;;;5073870;28;20459;-67
2023/08/27 03:42:18;;;;;;;2.93;2.37;;;15.60;99.90;;;;;;5073622;28;20439;-67
2023/08/27 03:44:44;;;;;;;2.90;2.60;;;15.60;99.90;;;;;;5073159;28;20953;-67
2023/08/27 03:47:11;;;;;;;2.53;2.33;;;15.70;99.90;;;;;;5073662;28;20435;-67
2023/08/27 03:49:38;;;;;;;3.37;2.30;;;15.70;99.90;;;;;;5073648;28;20455;-67
2023/08/27 03:52:05;;;;;;;5.50;2.70;;;15.60;99.90;;;;;;5073498;28;20442;-67
2023/08/27 03:54:33;;;;;;;3.67;2.20;;;15.70;99.90;;;;;;5073304;28;20435;-67
2023/08/27 03:57:00;;;;;;;3.47;2.50;;;15.70;99.90;;;;;;5073464;28;20446;-68
2023/08/27 03:59:27;;;;;;;2.60;2.40;;;15.70;99.90;;;;;;5073093;28;20490;-68
2023/08/27 04:01:54;;;;;;;2.40;2.20;;;15.70;99.90;;;;;;5072918;28;20442;-68
2023/08/27 04:04:21;;;;;;;2.83;2.40;;;15.60;99.90;;;;;;5072968;28;20877;-68
2023/08/27 04:06:48;;;;;;;3.60;2.87;;;15.70;99.90;;;;;;5073208;28;20808;-68
2023/08/27 04:12:10;;;;;;;2.70;2.30;;;15.60;99.90;;;;;;5091675;28;20538;-64
2023/08/27 04:14:37;;;;;;;5.70;3.20;;;15.60;99.90;;;;;;5091630;28;20438;-67
2023/08/27 04:17:04;;;;;;;3.47;2.60;;;15.60;99.90;;;;;;5090329;28;20931;-67
2023/08/27 04:19:30;;;;;;;3.50;2.30;;;15.70;99.90;;;;;;5090955;28;20465;-69
2023/08/27 04:21:57;;;;;;;2.60;2.33;;;15.70;99.90;;;;;;5090959;28;20434;-67
2023/08/27 04:24:24;;;;;;;2.60;2.40;;;15.70;99.90;;;;;;5090961;28;20465;-66
2023/08/27 04:26:50;;;;;;;2.63;2.20;;;15.70;99.90;;;;;;5091285;28;20466;-67
2023/08/27 04:29:19;;;;;;;2.50;2.23;;;15.70;99.90;;;;;;5091117;28;20980;-66
2023/08/27 04:31:45;;;;;;;2.97;2.40;;;15.70;99.90;;;;;;5091229;28;20470;-66
2023/08/27 04:34:12;;;;;;;3.07;2.40;;;15.70;99.90;;;;;;5090801;28;20488;-66
2023/08/27 04:36:39;;;;;;;3.33;2.00;;;15.70;99.90;;;;;;5091162;28;20473;-67
2023/08/27 04:39:07;;;;;;;3.17;2.90;;;15.70;99.90;;;;;;5091184;28;20465;-65
2023/08/27 04:41:34;;;;;;;4.53;2.47;;;15.70;99.90;;;;;;5091060;28;20446;-67
2023/08/27 04:44:01;;;;;;;2.03;1.93;;;15.70;99.90;;;;;;5090506;28;20971;-67
2023/08/27 04:46:29;;;;;;;4.27;2.60;;;15.70;99.90;;;;;;5091301;28;20453;-70
2023/08/27 04:48:56;;;;;;;2.63;2.30;;;15.70;99.90;;;;;;5090468;28;20446;-68
2023/08/27 04:51:22;;;;;;;3.40;2.87;;;15.70;99.90;;;;;;5091209;28;20484;-67
2023/08/27 04:53:49;;;;;;;4.00;2.80;;;15.70;99.90;;;;;;5090640;28;20813;-69
2023/08/27 04:56:16;;;;;;;2.60;2.40;;;15.80;99.90;;;;;;5090994;28;20439;-69
2023/08/27 04:58:43;;;;;;;3.67;2.50;;;15.80;99.90;;;;;;5090644;28;20944;-68
2023/08/27 05:01:10;;;;;;;2.70;2.40;;;15.80;99.90;;;;;;5091249;28;20473;-69
2023/08/27 05:03:38;;;;;;;2.67;2.40;;;15.90;99.90;;;;;;5090891;28;20932;-66
2023/08/27 05:06:05;;;;;;;3.73;2.40;;;15.90;99.90;;;;;;5089622;28;20476;-67
2023/08/27 05:08:32;;;;;;;2.60;2.40;;;16.00;99.90;;;;;;5090217;28;20506;-67
2023/08/27 05:10:59;;;;;;;2.10;1.90;;;16.00;99.90;;;;;;5090591;28;20482;-66
2023/08/27 05:13:26;;;;;;;2.20;2.00;;;16.00;99.90;;;;;;5091257;28;20453;-67
2023/08/27 05:15:53;;;;;;;3.83;2.40;;;16.10;99.90;;;;;;5090523;28;20442;-67
2023/08/27 05:18:19;;;;;;;4.40;2.63;;;16.10;99.90;;;;;;5090414;28;20803;-68
2023/08/27 05:20:47;;;;;;;3.10;2.20;;;16.10;99.90;;;;;;5092408;28;20486;-66
2023/08/27 05:23:14;;;;;;;3.10;2.30;;;16.20;99.90;;;;;;5081818;28;20441;-67
2023/08/27 05:25:41;;;;;;;2.87;2.57;;;16.20;99.90;;;;;;5078573;28;20801;-68
2023/08/27 05:28:08;;;;;;;2.70;2.17;;;16.20;99.90;;;;;;5077365;28;20439;-67
2023/08/27 05:30:35;;;;;;;2.43;2.10;;;16.30;99.90;;;;;;5076898;28;20944;-67
2023/08/27 05:33:02;;;;;;;2.47;2.27;;;16.30;99.90;;;;;;5075918;28;20450;-67
2023/08/27 05:35:29;;;;;;;3.47;2.60;;;16.30;99.90;;;;;;5076452;28;20435;-67
2023/08/27 05:37:57;;;;;;;3.30;2.43;;;16.30;99.90;;;;;;5075549;28;20956;-67
2023/08/27 05:40:23;;;;;;;3.13;2.83;;;16.40;99.90;;;;;;5075536;28;20976;-68
2023/08/27 05:42:50;;;;;;;3.30;2.27;;;16.40;99.90;;;;;;5075487;28;20968;-67
2023/08/27 05:45:17;;;;;;;2.40;2.20;;;16.50;99.90;;;;;;5075783;28;20439;-67
2023/08/27 05:47:44;;;;;;;3.67;2.73;;;16.50;99.90;;;;;;5075854;28;20442;-67
2023/08/27 05:50:11;;;;;;;5.17;2.50;;;16.60;99.90;;;;;;5075815;28;20461;-68
2023/08/27 05:52:38;;;;;;;3.00;2.30;;;16.60;99.90;;;;;;5075715;28;20439;-67
2023/08/27 05:55:06;;;;;;;2.83;2.50;;;16.60;99.90;;;;;;5075767;28;20443;-67
2023/08/27 05:57:33;;;;;;;2.40;2.10;;;16.70;99.90;;;;;;5075599;28;20470;-68
2023/08/27 06:00:00;;;;;;;2.90;2.57;;;16.70;99.90;;;;;;5075956;28;20495;-68
2023/08/27 06:02:27;;;;;;;3.93;2.37;;;16.80;99.90;;;;;;5075586;28;20435;-68
2023/08/27 06:04:54;;;;;;;4.90;2.63;;;16.90;99.90;;;;;;5075452;28;20439;-68
2023/08/27 06:07:20;;;;;;;2.57;2.27;;;17.00;99.90;;;;;;5075251;28;20454;-68
2023/08/27 06:09:47;;;;;;;2.67;2.23;;;17.00;99.90;;;;;;5074957;28;20541;-67
2023/08/27 06:12:15;;;;;;;2.97;2.20;;;17.10;99.90;;;;;;5074977;28;20489;-66
2023/08/27 06:14:42;;;;;;;2.53;2.27;;;17.10;99.90;;;;;;5075266;28;20435;-67
2023/08/27 06:17:09;;;;;;;4.23;2.57;;;17.20;99.90;;;;;;5075238;28;20808;-67
2023/08/27 06:19:36;;;;;;;3.30;2.20;;;17.20;99.90;;;;;;5074956;28;20459;-67
2023/08/27 06:22:02;;;;;;;3.90;2.63;;;17.30;99.90;;;;;;5074628;28;20451;-67
2023/08/27 06:24:29;;;;;;;4.10;2.87;;;17.30;99.90;;;;;;5074935;28;20512;-67
2023/08/27 06:26:56;;;;;;;3.13;2.47;;;17.30;99.90;;;;;;5074489;28;20447;-67
2023/08/27 06:29:24;;;;;;;2.80;2.20;;;17.40;99.90;;;;;;5074506;28;20451;-67
2023/08/27 06:31:51;;;;;;;5.90;2.50;;;17.40;99.90;;;;;;5074497;28;20490;-67
2023/08/27 06:34:17;;;;;;;2.23;2.03;;;17.50;99.90;;;;;;5073360;28;20817;-67
2023/08/27 06:36:44;;;;;;;2.80;2.23;;;17.50;99.90;;;;;;5074896;28;20439;-68
2023/08/27 06:39:11;;;;;;;2.97;2.17;;;17.60;99.90;;;;;;5074741;28;20466;-67
2023/08/27 06:41:37;;;;;;;3.30;2.60;;;17.70;99.90;;;;;;5074364;28;20513;-67
2023/08/27 06:44:05;;;;;;;2.30;2.10;;;17.70;99.90;;;;;;5074423;28;20439;-67
2023/08/27 06:46:33;;;;;;;3.10;2.27;;;17.70;99.90;;;;;;5074191;28;20447;-67
2023/08/27 06:49:00;;;;;;;3.30;2.77;;;17.80;99.90;;;;;;5074269;28;20447;-67
2023/08/27 06:51:28;;;;;;;3.17;2.40;;;17.70;99.90;;;;;;5074501;28;20501;-67
2023/08/27 06:53:54;;;;;;;2.40;2.20;;;17.70;99.90;;;;;;5073773;28;20447;-67
2023/08/27 06:56:21;;;;;;;3.20;2.20;;;17.70;99.90;;;;;;5074395;28;20443;-66
2023/08/27 06:58:48;;;;;;;4.73;2.60;;;17.70;99.90;;;;;;5074141;28;20439;-66
2023/08/27 07:01:14;;;;;;;4.53;2.53;;;17.70;99.90;;;;;;5074362;28;20534;-66
2023/08/27 07:03:43;;;;;;;2.53;1.90;;;17.80;99.90;;;;;;5074495;28;20442;-68
2023/08/27 07:06:09;;;;;;;2.57;2.37;;;17.90;99.90;;;;;;5074604;28;20439;-67
2023/08/27 07:08:36;;;;;;;4.00;2.40;;;18.00;99.90;;;;;;5074372;28;20933;-66
2023/08/27 07:11:04;;;;;;;3.17;2.40;;;17.90;99.90;;;;;;5074216;28;21010;-67
2023/08/27 07:13:30;;;;;;;2.60;2.40;;;17.90;99.90;;;;;;5075393;28;20431;-66
2023/08/27 07:15:58;;;;;;;2.70;2.47;;;17.90;99.90;;;;;;5074288;28;20496;-67
2023/08/27 07:18:24;;;;;;;4.80;2.13;;;17.90;99.90;;;;;;5074775;28;20487;-66
2023/08/27 07:20:53;;;;;;;6.73;3.60;;;18.00;99.90;;;;;;5074272;28;20463;-66
2023/08/27 07:23:20;;;;;;;7.33;4.10;;;18.10;99.90;;;;;;5074092;28;20514;-66
2023/08/27 07:25:46;;;;;;;4.50;2.50;;;18.20;99.90;;;;;;5074821;28;20443;-65
2023/08/27 07:28:13;;;;;;;2.70;2.23;;;18.30;99.90;;;;;;5074390;28;20439;-66
2023/08/27 07:30:40;;;;;;;2.90;2.30;;;18.50;99.90;;;;;;5073749;28;20469;-66
2023/08/27 07:33:07;;;;;;;2.80;2.03;;;18.60;99.90;;;;;;5073810;28;20496;-66
2023/08/27 07:35:33;;;;;;;2.50;2.13;;;18.70;99.90;;;;;;5073945;28;20501;-66
2023/08/27 07:38:01;;;;;;;2.37;2.10;;;18.70;99.90;;;;;;5073653;28;20446;-66
2023/08/27 07:40:29;;;;;;;5.37;3.10;;;18.80;99.90;;;;;;5073506;28;20459;-66
2023/08/27 07:42:56;;;;;;;2.30;1.80;;;18.70;99.90;;;;;;5073919;28;20447;-66
2023/08/27 07:45:23;;;;;;;2.90;2.20;;;18.80;99.90;;;;;;5073866;28;20435;-65
2023/08/27 07:47:49;;;;;;;4.83;2.23;;;18.90;99.90;;;;;;5074430;28;20875;-66
2023/08/27 07:50:16;;;;;;;5.87;2.53;;;19.00;99.90;;;;;;5074153;28;20459;-67
2023/08/27 07:52:43;;;;;;;3.63;1.97;;;19.10;99.90;;;;;;5074239;28;20475;-67
2023/08/27 07:55:11;;;;;;;2.53;2.20;;;19.20;99.90;;;;;;5074914;28;20454;-67
2023/08/27 07:57:38;;;;;;;2.53;2.33;;;19.40;99.90;;;;;;5074413;28;20469;-67
2023/08/27 08:00:07;;;;;;;2.77;1.93;;;19.60;99.90;;;;;;5073946;28;20462;-67
2023/08/27 08:02:34;;;;;;;3.17;2.07;;;19.70;99.90;;;;;;5074082;28;20886;-67
2023/08/27 08:05:01;;;;;;;2.20;1.87;;;19.90;99.90;;;;;;5074059;28;20451;-67
2023/08/27 08:07:28;;;;;;;4.13;2.30;;;19.90;99.90;;;;;;5074269;28;20449;-68
2023/08/27 08:09:55;;;;;;;2.77;2.30;;;20.00;99.90;;;;;;5083634;22;20492;-64
2023/08/27 08:12:23;;;;;;;3.77;2.30;;;20.20;99.90;;;;;;5054259;28;20488;-63
2023/08/27 08:14:49;;;;;;;6.83;2.20;;;20.40;99.10;;;;;;5054594;28;20475;-63
2023/08/27 08:17:16;;;;;;;2.90;2.20;;;20.70;98.30;;;;;;5054467;28;20455;-64
2023/08/27 08:19:43;;;;;;;2.53;2.10;;;21.00;97.10;;;;;;5054888;28;20462;-63
2023/08/27 08:22:10;;;;;;;2.80;2.07;;;21.20;96.00;;;;;;5054693;28;20436;-67
2023/08/27 08:24:37;;;;;;;5.77;2.60;;;21.50;94.90;;;;;;5055014;28;20987;-63
2023/08/27 08:27:04;;;;;;;2.33;2.13;;;21.80;93.80;;;;;;5054853;28;20522;-63
2023/08/27 08:29:33;;;;;;;4.77;2.10;;;22.00;92.60;;;;;;5054339;28;21044;-63
2023/08/27 08:32:00;;;;;;;3.20;1.80;;;22.40;91.00;;;;;;5055061;28;20476;-62
2023/08/27 08:34:27;;;;;;;2.80;2.20;;;22.60;88.60;;;;;;5054123;28;20447;-64
2023/08/27 08:36:54;;;;;;;2.60;2.40;;;22.70;86.10;;;;;;5054482;28;20444;-65
2023/08/27 08:39:22;;;;;;;4.53;2.63;;;22.80;84.00;;;;;;5055516;28;20805;-63
2023/08/27 08:41:58;;;;;;;3.00;2.40;;;22.80;81.80;;;;;;5055605;28;20501;-63
2023/08/27 08:44:33;;;;;;;6.10;2.23;;;22.80;80.60;;;;;;5054723;28;20428;-63
2023/08/27 08:47:02;;;;;;;2.83;2.10;;;22.90;79.60;;;;;;5054263;28;20515;-64
2023/08/27 08:49:33;;;;;;;2.30;1.90;;;23.10;78.10;;;;;;5054136;28;20456;-62
2023/08/27 08:52:04;;;;;;;2.63;1.80;;;23.30;76.40;;;;;;5055394;28;20496;-63
2023/08/27 08:54:31;;;;;;;2.20;1.70;;;23.40;75.10;;;;;;5055337;28;20429;-63
2023/08/27 08:57:01;;;;;;;2.67;2.07;;;23.40;73.70;;;;;;5055712;28;20444;-65
2023/08/27 08:59:29;;;;;;;2.43;1.70;;;23.30;72.50;;;;;;5058994;28;20970;-63
2023/08/27 09:01:56;;;;;;;3.53;1.90;;;23.20;72.20;;;;;;5058955;28;20454;-61
2023/08/27 09:04:25;;;;;;;3.70;1.63;;;23.10;72.50;;;;;;5058473;28;20959;-63
2023/08/27 09:06:54;;;;;;;3.50;1.90;;;23.10;72.80;;;;;;5058956;28;20531;-64
2023/08/27 09:09:23;;;;;;;2.73;2.17;;;23.20;72.70;;;;;;5058378;28;20446;-62
2023/08/27 09:11:51;;;;;;;2.27;1.70;;;23.30;72.00;;;;;;5059633;28;20464;-63
2023/08/27 09:14:20;;;;;;;2.53;1.70;;;23.40;70.90;;;;;;5059527;28;20450;-63
2023/08/27 09:16:47;;;;;;;4.20;1.80;;;23.40;69.80;;;;;;5059448;28;20448;-63
2023/08/27 09:19:14;;;;;;;1.90;1.60;;;23.50;69.50;;;;;;5059739;28;20446;-63
2023/08/27 09:21:43;;;;;;;1.93;1.67;;;23.60;69.00;;;;;;5059733;28;20440;-64
2023/08/27 09:24:10;;;;;;;2.80;1.50;;;23.80;68.30;;;;;;5058905;28;20439;-63
2023/08/27 09:26:38;;;;;;;2.30;2.00;;;24.10;67.40;;;;;;5058269;28;20451;-64
2023/08/27 09:29:06;;;;;;;4.40;2.17;;;24.30;66.10;;;;;;5058469;28;20436;-63
2023/08/27 09:31:37;;;;;;;1.97;1.80;;;24.50;65.10;;;;;;5058814;28;20439;-61
2023/08/27 09:34:04;;;;;;;2.60;1.93;;;24.70;64.50;;;;;;5058975;28;20444;-64
2023/08/27 09:36:32;;;;;;;2.20;1.77;;;24.80;64.00;;;;;;5059370;28;20530;-64
2023/08/27 09:39:07;;;;;;;2.70;1.73;;;24.90;63.50;;;;;;5059284;28;20505;-60
2023/08/27 09:41:37;;;;;;;1.90;1.60;;;25.10;62.70;;;;;;5058373;28;20873;-64
2023/08/27 09:44:04;;;;;;;2.10;1.83;;;25.10;61.50;;;;;;5059586;28;20511;-63
2023/08/27 09:46:31;;;;;;;2.30;1.40;;;25.10;61.30;;;;;;5058892;28;20444;-63
2023/08/27 09:49:00;;;;;;;2.80;1.40;;;25.10;60.50;;;;;;5058402;28;20439;-63
2023/08/27 09:51:28;;;;;;;2.33;1.73;;;25.10;59.80;;;;;;5057470;28;20542;-63
2023/08/27 09:53:55;;;;;;;3.60;1.60;;;25.30;59.50;;;;;;5057518;28;20501;-63
2023/08/27 09:56:24;;;;;;;3.90;1.80;;;25.50;59.10;;;;;;5057239;28;20980;-62
2023/08/27 09:58:52;;;;;;;1.17;1.07;;;25.80;58.50;;;;;;5056919;28;20440;-61
2023/08/27 10:01:19;;;;;;;1.63;1.37;;;25.90;57.70;;;;;;5056310;28;20467;-63
2023/08/27 10:03:47;;;;;;;1.73;1.30;;;26.10;56.60;;;;;;5057064;28;20486;-62
2023/08/27 10:06:14;;;;;;;1.90;1.40;;;26.30;55.70;;;;;;5056559;28;20440;-65
2023/08/27 10:08:49;;;;;;;2.67;1.40;;;26.20;54.80;;;;;;5056836;28;20471;-64
2023/08/27 10:11:16;;;;;;;3.83;1.33;;;26.00;55.30;;;;;;5056875;28;20471;-63
2023/08/27 10:13:45;;;;;;;1.63;1.40;;;25.70;54.60;;;;;;5056689;28;20492;-63
2023/08/27 10:16:12;;;;;;;2.80;1.23;;;25.50;54.00;;;;;;5057331;28;20448;-63
2023/08/27 10:18:40;;;;;;;1.40;1.13;;;25.40;53.80;;;;;;5056887;28;20820;-63
2023/08/27 10:21:08;;;;;;;1.33;1.00;;;25.40;53.40;;;;;;5057540;28;20472;-63
2023/08/27 10:23:36;;;;;;;2.00;1.20;;;25.40;53.40;;;;;;5057088;28;20448;-63
2023/08/27 10:26:04;;;;;;;1.53;1.13;;;25.40;53.00;;;;;;5056743;28;20455;-64
2023/08/27 10:28:33;;;;;;;2.17;0.93;;;25.50;53.10;;;;;;5056820;28;20444;-64
2023/08/27 10:31:02;;;;;;;1.77;1.00;;;25.50;52.90;;;;;;5056699;28;20464;-64
2023/08/27 10:33:29;;;;;;;1.57;1.00;;;25.60;52.50;;;;;;5056116;28;20480;-63
2023/08/27 10:35:59;;;;;;;1.40;1.23;;;25.70;52.30;;;;;;5055650;28;20949;-63
2023/08/27 10:38:28;;;;;;;2.70;1.20;;;25.60;52.00;;;;;;5055474;28;20448;-62
2023/08/27 10:40:55;;;;;;;1.60;1.27;;;25.50;51.90;;;;;;5056082;28;20470;-63
2023/08/27 10:43:22;;;;;;;1.57;1.10;;;25.30;52.20;;;;;;5056090;28;20436;-64
2023/08/27 10:45:49;;;;;;;2.63;1.17;;;25.00;52.70;;;;;;5055939;28;20436;-63
2023/08/27 10:48:30;;;;;;;1.77;1.53;;;24.40;54.20;;;;;;5055679;28;20448;-63
2023/08/27 10:51:10;;;;;;;1.80;1.60;;;23.60;55.90;;;;;;5055738;28;20468;-63
2023/08/27 10:53:41;;;;;;;4.03;1.60;;;22.90;57.70;;;;;;5055628;28;20493;-63
2023/08/27 10:56:29;;;;;;;4.17;1.43;;;22.40;59.10;;;;;;5055374;28;20527;-63
2023/08/27 10:59:00;;;;;;;3.57;1.60;;;21.90;62.40;;;;;;5056159;28;20425;-64
2023/08/27 11:01:27;;;;;;;2.67;1.50;;;21.00;68.10;;;;;;5055564;28;20555;-63
2023/08/27 11:04:00;;;;;;;2.00;1.80;;;20.10;74.50;;;;;;5055728;28;20926;-64
2023/08/27 11:06:38;;;;;;;5.33;2.13;;;19.40;85.50;;;;;;5055438;28;20433;-63
2023/08/27 11:09:16;;;;;;;3.30;2.63;;;19.10;94.30;;;;;;5054775;28;20450;-62
2023/08/27 11:11:46;;;;;;;2.20;2.00;;;19.00;99.20;;;;;;5055181;28;20444;-61
2023/08/27 11:14:15;;;;;;;2.40;2.03;;;18.90;99.90;;;;;;5055453;28;20483;-64
2023/08/27 11:16:47;;;;;;;3.77;2.00;;;19.00;99.90;;;;;;5055630;28;20440;-64
2023/08/27 11:19:25;;;;;;;4.40;2.10;;;19.20;99.90;;;;;;5056809;28;20444;-64
2023/08/27 11:21:52;;;;;;;2.80;1.77;;;19.40;99.90;;;;;;5056621;28;20506;-63
2023/08/27 11:24:21;;;;;;;4.57;1.83;;;19.60;99.90;;;;;;5057384;28;20448;-63
2023/08/27 11:26:49;;;;;;;2.30;1.83;;;19.70;99.90;;;;;;5057364;28;20440;-62
2023/08/27 11:29:16;;;;;;;2.70;1.60;;;19.90;99.90;;;;;;5057804;28;20442;-64
2023/08/27 11:31:44;;;;;;;3.00;1.97;;;20.20;99.90;;;;;;5058426;28;20451;-63
2023/08/27 11:34:13;;;;;;;2.37;1.90;;;20.40;99.90;;;;;;5057565;28;20486;-60
2023/08/27 11:36:44;;;;;;;6.67;1.97;;;20.70;99.90;;;;;;5057640;28;20444;-63
2023/08/27 11:39:12;;;;;;;1.93;1.50;;;20.90;99.90;;;;;;5057937;28;20539;-62
2023/08/27 11:41:41;;;;;;;2.40;1.50;;;21.00;99.90;;;;;;5056908;28;20440;-63
2023/08/27 11:44:10;;;;;;;2.60;1.60;;;21.20;99.90;;;;;;5058392;28;20553;-63
2023/08/27 11:46:38;;;;;;;2.10;1.60;;;21.40;99.90;;;;;;5057149;28;20535;-63
2023/08/27 11:49:05;;;;;;;6.10;1.67;;;21.40;99.90;;;;;;5056936;28;20456;-63
2023/08/27 11:51:34;;;;;;;1.63;1.20;;;21.40;99.90;;;;;;5057115;28;20466;-63
2023/08/27 11:54:06;;;;;;;1.10;0.90;;;21.40;99.90;;;;;;5057131;28;20476;-63
2023/08/27 11:56:35;;;;;;;2.47;1.50;;;21.40;99.00;;;;;;5057509;28;20454;-63
2023/08/27 11:59:04;;;;;;;2.13;1.40;;;21.30;98.10;;;;;;5056314;28;20448;-63
2023/08/27 12:01:31;;;;;;;1.87;1.17;;;21.20;97.90;;;;;;5055236;28;20460;-63
2023/08/27 12:03:58;;;;;;;2.83;2.03;;;21.10;97.90;;;;;;5055096;28;20440;-63
2023/08/27 12:06:26;;;;;;;1.43;1.10;;;21.00;97.60;;;;;;5054821;28;20470;-63
2023/08/27 12:08:54;;;;;;;2.10;1.90;;;20.90;97.10;;;;;;5055051;28;20451;-63
2023/08/27 12:11:26;;;;;;;2.20;1.70;;;20.80;96.80;;;;;;5055059;28;20472;-63
2023/08/27 12:13:56;;;;;;;1.70;1.20;;;20.70;96.50;;;;;;5055241;28;20456;-62
2023/08/27 12:16:28;;;;;;;2.20;1.20;;;20.70;96.40;;;;;;5054616;28;20447;-63
2023/08/27 12:19:01;;;;;;;1.33;1.23;;;20.60;96.50;;;;;;5054530;28;20424;-63
2023/08/27 12:21:28;;;;;;;1.30;1.20;;;20.70;96.50;;;;;;5054029;28;21135;-62
2023/08/27 12:23:54;;;;;;;1.70;1.40;;;20.70;96.30;;;;;;5053923;28;20440;-63
2023/08/27 12:26:23;;;;;;;3.00;1.40;;;20.70;96.10;;;;;;5053941;28;20439;-63
2023/08/27 12:28:53;;;;;;;3.47;1.00;;;20.70;95.90;;;;;;5053978;28;20820;-62
2023/08/27 12:31:24;;;;;;;2.53;1.30;;;20.80;95.80;;;;;;5054195;28;20459;-63
2023/08/27 12:33:56;;;;;;;1.07;0.97;;;20.80;95.60;;;;;;5057601;28;21063;-63
2023/08/27 12:36:24;;;;;;;1.20;1.10;;;20.90;95.50;;;;;;5058454;28;20429;-63
2023/08/27 12:38:51;;;;;;;4.10;1.10;;;21.10;95.20;;;;;;5057897;28;20463;-63
2023/08/27 12:41:18;;;;;;;1.53;1.07;;;21.20;94.70;;;;;;5057566;28;20464;-64
2023/08/27 12:43:46;;;;;;;1.30;1.20;;;21.30;93.80;;;;;;5057932;28;20486;-63
2023/08/27 12:46:12;;;;;;;1.77;1.10;;;21.40;92.90;;;;;;5057904;28;20814;-63
2023/08/27 12:48:39;;;;;;;1.03;0.93;;;21.50;92.40;;;;;;5057095;28;20945;-63
2023/08/27 12:51:06;;;;;;;1.50;1.20;;;21.60;91.70;;;;;;5057511;28;20471;-63
2023/08/27 12:53:33;;;;;;;1.77;0.90;;;21.70;90.80;;;;;;5057789;28;20479;-62